Time;durP1;ratioP1;P1;durP2;ratioP2;P2;SDS_P1;SDS_P2;PMS_P1;PMS_P2;Temp;Humidity;BMP_temperature;BMP_pressure;BME280_temperature;BME280_humidity;BME280_pressure;Samples;Min_cycle;Max_cycle;Signal;HPM_P1;HPM_P2
2023/09/29 00:00:15;;;;;;;14.50;5.37;;;;;;;16.78;43.17;101054.58;127279;1085;104028;-73
2023/09/29 00:03:06;;;;;;;14.77;5.10;;;;;;;16.74;43.64;101055.38;127404;1086;101749;-73
2023/09/29 00:05:35;;;;;;;10.73;5.20;;;;;;;16.68;44.34;101063.20;127456;1086;102852;-73
2023/09/29 00:08:06;;;;;;;19.07;5.60;;;;;;;16.58;44.19;101064.78;127420;1086;101878;-72
2023/09/29 00:10:39;;;;;;;15.40;5.30;;;;;;;16.55;44.01;101067.37;127310;1086;104274;-73
2023/09/29 00:13:08;;;;;;;14.77;4.80;;;;;;;16.56;44.10;101062.95;127277;1086;104178;-73
2023/09/29 00:15:37;;;;;;;13.07;5.23;;;;;;;16.53;43.80;101062.05;127404;1086;104178;-73
2023/09/29 00:18:07;;;;;;;14.93;5.23;;;;;;;16.51;44.56;101061.09;127334;1086;101981;-73
2023/09/29 00:20:36;;;;;;;16.13;5.33;;;;;;;16.45;45.19;101065.39;127475;1086;102012;-73
2023/09/29 00:23:05;;;;;;;15.30;5.40;;;;;;;16.40;45.01;101067.94;127196;1086;104169;-73
2023/09/29 00:25:34;;;;;;;14.83;5.40;;;;;;;16.38;45.43;101063.45;127369;1086;104165;-73
2023/09/29 00:28:03;;;;;;;17.10;5.13;;;;;;;16.34;45.25;101066.04;127249;1086;102133;-73
2023/09/29 00:30:31;;;;;;;13.67;4.90;;;;;;;16.30;45.57;101064.21;127655;1086;104244;-73
2023/09/29 00:33:02;;;;;;;10.43;5.47;;;;;;;16.23;45.98;101062.28;127134;1086;104172;-73
2023/09/29 00:35:33;;;;;;;17.67;5.73;;;;;;;16.16;45.68;101061.27;127621;1085;104123;-73
2023/09/29 00:38:02;;;;;;;15.90;5.43;;;;;;;16.12;46.25;101071.75;127710;1086;101765;-73
2023/09/29 00:40:31;;;;;;;19.43;5.37;;;;;;;16.08;46.54;101070.80;127755;1086;102006;-73
2023/09/29 00:43:00;;;;;;;18.13;5.50;;;;;;;16.02;46.10;101077.69;127184;1086;104197;-73
2023/09/29 00:45:29;;;;;;;20.50;6.27;;;;;;;15.95;45.91;101069.61;127232;1086;103735;-73
2023/09/29 00:48:06;;;;;;;11.67;4.83;;;;;;;15.91;46.03;101073.06;127076;1086;104159;-73
2023/09/29 00:50:37;;;;;;;17.30;5.20;;;;;;;15.90;46.53;101078.31;127103;1086;102006;-73
2023/09/29 00:53:08;;;;;;;14.13;5.00;;;;;;;15.86;46.25;101076.45;127072;1086;104152;-73
2023/09/29 00:55:37;;;;;;;13.27;5.23;;;;;;;15.80;46.10;101071.93;127027;1086;104318;-73
2023/09/29 00:58:07;;;;;;;16.30;5.20;;;;;;;15.74;46.22;101075.28;127305;1086;104181;-73
2023/09/29 01:00:38;;;;;;;11.33;4.73;;;;;;;15.70;47.41;101075.17;127112;1086;104217;-73
2023/09/29 01:03:09;;;;;;;11.83;4.87;;;;;;;15.64;46.92;101074.17;127308;1085;104041;-73
2023/09/29 01:05:41;;;;;;;11.03;4.80;;;;;;;15.58;47.42;101075.75;127246;1086;102011;-73
2023/09/29 01:08:12;;;;;;;14.70;6.33;;;;;;;15.54;47.23;101081.84;127344;1086;102084;-73
2023/09/29 01:10:42;;;;;;;15.57;5.23;;;;;;;15.51;47.34;101068.55;127239;1084;104330;-73
2023/09/29 01:13:12;;;;;;;13.53;5.47;;;;;;;15.48;47.93;101073.76;127137;1086;104319;-73
2023/09/29 01:15:41;;;;;;;13.83;5.20;;;;;;;15.46;47.88;101079.89;127174;1086;101974;-73
2023/09/29 01:18:10;;;;;;;16.50;6.07;;;;;;;15.45;47.20;101083.38;127219;1086;104222;-73
2023/09/29 01:20:40;;;;;;;17.80;5.53;;;;;;;15.43;47.98;101087.75;127193;1086;101791;-73
2023/09/29 01:23:09;;;;;;;11.03;5.20;;;;;;;15.42;48.54;101090.35;127188;1086;101850;-73
2023/09/29 01:25:38;;;;;;;17.63;5.50;;;;;;;15.39;47.70;101084.98;127233;1086;104228;-73
2023/09/29 01:28:09;;;;;;;13.17;5.27;;;;;;;15.37;48.36;101084.06;127284;1086;102159;-73
2023/09/29 01:30:38;;;;;;;14.83;5.00;;;;;;;15.35;48.77;101091.95;127395;1084;104204;-73
2023/09/29 01:33:07;;;;;;;14.17;5.37;;;;;;;15.32;49.30;101089.23;127481;1085;104188;-73
2023/09/29 01:35:36;;;;;;;16.90;4.73;;;;;;;15.26;49.00;101086.43;127517;1086;104153;-73
2023/09/29 01:38:05;;;;;;;14.07;5.00;;;;;;;15.22;48.37;101087.20;128283;1085;101797;-73
2023/09/29 01:40:33;;;;;;;12.83;5.30;;;;;;;15.18;49.73;101086.23;127346;1086;104108;-73
2023/09/29 01:43:03;;;;;;;12.37;4.90;;;;;;;15.14;48.83;101091.39;127330;1086;101806;-73
2023/09/29 01:45:32;;;;;;;17.97;5.27;;;;;;;15.07;49.90;101091.23;127257;1086;101835;-73
2023/09/29 01:48:01;;;;;;;13.63;5.17;;;;;;;15.04;49.50;101092.91;127381;1085;101985;-73
2023/09/29 01:50:32;;;;;;;14.93;5.33;;;;;;;15.01;49.77;101096.35;127532;1086;104039;-73
2023/09/29 01:53:02;;;;;;;11.35;5.60;;;;;;;14.96;50.57;101097.06;127370;1086;104156;-73
2023/09/29 01:55:31;;;;;;;14.70;5.47;;;;;;;14.92;50.13;101091.70;127572;1086;101999;-73
2023/09/29 01:58:00;;;;;;;14.33;5.23;;;;;;;14.92;50.01;101096.09;127024;1086;102041;-73
2023/09/29 02:00:29;;;;;;;15.27;5.17;;;;;;;14.91;49.75;101099.58;127418;1086;101864;-73
2023/09/29 02:03:00;;;;;;;11.77;5.10;;;;;;;14.90;50.92;101100.45;127243;1086;102046;-73
2023/09/29 02:05:28;;;;;;;18.37;5.80;;;;;;;14.89;50.62;101099.54;127293;1086;101877;-73
2023/09/29 02:08:03;;;;;;;14.70;5.50;;;;;;;14.90;51.05;101105.74;127123;1086;101905;-73
2023/09/29 02:10:32;;;;;;;14.97;5.23;;;;;;;14.89;50.95;101098.66;126972;1086;104227;-73
2023/09/29 02:13:04;;;;;;;10.80;5.17;;;;;;;14.86;51.05;101101.22;127210;1086;104236;-73
2023/09/29 02:15:34;;;;;;;13.07;5.43;;;;;;;14.85;50.10;101102.97;127038;1086;102067;-73
2023/09/29 02:18:05;;;;;;;14.83;5.20;;;;;;;14.82;50.80;101100.24;126946;1086;104223;-73
2023/09/29 02:20:41;;;;;;;12.03;4.90;;;;;;;14.79;50.74;101097.52;127308;1086;104263;-73
2023/09/29 02:23:09;;;;;;;12.90;5.23;;;;;;;14.77;51.59;101098.31;127230;1086;101867;-73
2023/09/29 02:25:41;;;;;;;15.47;5.67;;;;;;;14.76;51.37;101096.52;127084;1086;104223;-73
2023/09/29 02:28:10;;;;;;;13.53;5.33;;;;;;;14.74;50.74;101102.67;126727;1086;104382;-73
2023/09/29 02:30:38;;;;;;;12.83;5.17;;;;;;;14.72;51.67;101099.10;127037;1086;104210;-73
2023/09/29 02:33:07;;;;;;;20.57;6.20;;;;;;;14.69;50.85;101096.38;126843;1086;104159;-73
2023/09/29 02:35:36;;;;;;;15.60;5.67;;;;;;;14.65;50.88;101102.41;127046;1086;101906;-73
2023/09/29 02:38:05;;;;;;;14.60;5.73;;;;;;;14.61;51.58;101099.62;127058;1086;104313;-72
2023/09/29 02:40:34;;;;;;;14.43;5.50;;;;;;;14.55;52.33;101105.58;127057;1086;104331;-73
2023/09/29 02:43:04;;;;;;;14.83;5.40;;;;;;;14.50;51.73;101100.17;127065;1086;101820;-73
2023/09/29 02:45:33;;;;;;;17.00;6.87;;;;;;;14.48;52.47;101096.59;126965;1086;102040;-73
2023/09/29 02:48:02;;;;;;;14.40;5.33;;;;;;;14.45;51.82;101101.79;126785;1086;104362;-73
2023/09/29 02:50:30;;;;;;;12.57;5.67;;;;;;;14.43;51.64;101110.50;127551;1086;101852;-73
2023/09/29 02:52:59;;;;;;;19.63;6.20;;;;;;;14.35;52.41;101097.99;127673;1086;101909;-73
2023/09/29 02:55:27;;;;;;;15.60;6.00;;;;;;;14.30;52.77;101099.57;127600;1086;104321;-73
2023/09/29 02:57:56;;;;;;;13.67;5.67;;;;;;;14.27;52.86;101099.48;127713;1083;104184;-73
2023/09/29 03:00:27;;;;;;;13.77;5.67;;;;;;;14.25;52.07;101100.30;127719;1086;101648;-73
2023/09/29 03:02:56;;;;;;;13.27;5.93;;;;;;;14.23;52.46;101102.90;127240;1086;104210;-73
2023/09/29 03:05:25;;;;;;;15.73;5.60;;;;;;;14.20;52.77;101098.41;127048;1086;104036;-73
2023/09/29 03:07:55;;;;;;;15.97;5.63;;;;;;;14.19;53.72;101101.00;127299;1085;102009;-73
2023/09/29 03:10:28;;;;;;;15.33;5.77;;;;;;;14.16;53.46;101100.91;127183;1086;104225;-72
2023/09/29 03:12:56;;;;;;;15.67;6.17;;;;;;;14.14;53.63;101098.22;127168;1085;101770;-73
2023/09/29 03:15:26;;;;;;;15.03;5.87;;;;;;;14.12;53.63;101105.20;127135;1086;104225;-73
2023/09/29 03:17:55;;;;;;;14.80;6.03;;;;;;;14.11;53.21;101099.88;127069;1086;101873;-73
2023/09/29 03:20:25;;;;;;;16.97;6.00;;;;;;;14.10;53.72;101096.36;126961;1086;104181;-74
2023/09/29 03:22:58;;;;;;;16.80;5.80;;;;;;;14.10;53.81;101098.08;126972;1086;104156;-73
2023/09/29 03:25:27;;;;;;;15.48;5.87;;;;;;;14.10;54.12;101100.72;127170;1086;101922;-73
2023/09/29 03:27:56;;;;;;;17.70;6.03;;;;;;;14.10;54.07;101099.00;127131;1086;104165;-73
2023/09/29 03:30:25;;;;;;;12.27;5.57;;;;;;;14.09;54.01;101098.95;127071;1086;104258;-72
2023/09/29 03:32:55;;;;;;;17.07;6.53;;;;;;;14.08;53.59;101102.42;127062;1086;104168;-73
2023/09/29 03:35:24;;;;;;;14.13;6.20;;;;;;;14.06;53.61;101098.86;126981;1086;101890;-73
2023/09/29 03:37:52;;;;;;;16.65;6.50;;;;;;;14.02;53.52;101096.12;127231;1086;102115;-72
2023/09/29 03:40:21;;;;;;;17.43;6.53;;;;;;;14.01;53.84;101091.68;126592;1086;101889;-71
2023/09/29 03:42:49;;;;;;;13.87;5.73;;;;;;;13.99;53.68;101095.11;126301;1085;104155;-71
2023/09/29 03:45:18;;;;;;;19.80;6.27;;;;;;;13.99;53.47;101095.11;126326;1086;104159;-71
2023/09/29 03:47:47;;;;;;;21.63;6.50;;;;;;;13.97;54.02;101091.53;126368;1085;104298;-71
2023/09/29 03:50:15;;;;;;;15.27;6.37;;;;;;;13.96;53.72;101100.28;126416;1086;102376;-72
2023/09/29 03:52:46;;;;;;;18.40;6.20;;;;;;;13.95;53.80;101093.23;126460;1086;103353;-72
2023/09/29 03:55:14;;;;;;;17.07;6.10;;;;;;;13.95;53.50;101098.52;126404;1086;104357;-72
2023/09/29 03:57:44;;;;;;;16.03;6.67;;;;;;;13.95;54.16;101104.68;126394;1086;104043;-72
2023/09/29 04:00:16;;;;;;;18.67;6.87;;;;;;;13.94;54.13;101094.08;126388;1086;104220;-72
2023/09/29 04:02:45;;;;;;;16.13;6.17;;;;;;;13.93;53.92;101101.11;126474;1086;102548;-72
2023/09/29 04:05:15;;;;;;;20.27;6.73;;;;;;;13.92;53.99;101101.94;126396;1086;104352;-72
2023/09/29 04:07:44;;;;;;;20.90;6.47;;;;;;;13.92;53.53;101107.22;126332;1085;104175;-72
2023/09/29 04:10:13;;;;;;;22.57;6.60;;;;;;;13.89;53.90;101107.13;126401;1086;102006;-72
2023/09/29 04:12:44;;;;;;;15.37;6.43;;;;;;;13.87;54.44;101106.19;126398;1086;104232;-72
2023/09/29 04:15:14;;;;;;;17.87;6.37;;;;;;;13.84;54.05;101109.61;126430;1086;104306;-71
2023/09/29 04:17:43;;;;;;;17.67;6.40;;;;;;;13.84;54.53;101114.00;126358;1085;104200;-72
2023/09/29 04:20:13;;;;;;;16.87;6.47;;;;;;;13.84;54.57;101119.28;126380;1086;101854;-72
2023/09/29 04:22:41;;;;;;;16.43;6.47;;;;;;;13.84;54.38;101114.89;126398;1086;104286;-72
2023/09/29 04:25:11;;;;;;;16.53;6.27;;;;;;;13.86;54.61;101130.77;126389;1086;101834;-72
2023/09/29 04:27:40;;;;;;;17.97;6.63;;;;;;;13.91;54.36;101125.64;126367;1086;104337;-71
2023/09/29 04:30:12;;;;;;;14.87;6.23;;;;;;;13.93;54.50;101129.20;126352;1086;101961;-72
2023/09/29 04:32:41;;;;;;;13.10;6.27;;;;;;;13.91;54.78;101121.25;126386;1086;102008;-72
2023/09/29 04:35:10;;;;;;;17.25;6.60;;;;;;;13.86;54.98;101121.97;126407;1086;102086;-73
2023/09/29 04:37:40;;;;;;;17.57;6.00;;;;;;;13.83;55.11;101117.48;126442;1086;101970;-72
2023/09/29 04:40:11;;;;;;;20.83;7.50;;;;;;;13.80;55.47;101117.38;126430;1085;104251;-72
2023/09/29 04:42:40;;;;;;;17.70;5.93;;;;;;;13.80;55.95;101118.26;126496;1086;101877;-72
2023/09/29 04:45:09;;;;;;;15.40;6.43;;;;;;;13.82;55.77;101119.23;126434;1086;104194;-72
2023/09/29 04:47:39;;;;;;;18.03;6.33;;;;;;;13.86;54.79;101122.85;126431;1086;104196;-73
2023/09/29 04:50:10;;;;;;;16.83;6.57;;;;;;;13.92;55.03;101119.52;126462;1086;104277;-73
2023/09/29 04:52:39;;;;;;;15.57;5.90;;;;;;;13.96;55.66;101127.59;126524;1085;101956;-72
2023/09/29 04:55:09;;;;;;;19.10;7.07;;;;;;;13.99;55.60;101125.05;126350;1086;104222;-72
2023/09/29 04:57:38;;;;;;;17.90;6.60;;;;;;;14.05;54.95;101126.08;126493;1085;101915;-73
2023/09/29 05:00:09;;;;;;;18.83;7.03;;;;;;;14.09;55.95;101122.70;126494;1086;104186;-73
2023/09/29 05:02:38;;;;;;;20.60;7.00;;;;;;;14.12;55.61;101122.80;126572;1086;102387;-73
2023/09/29 05:05:10;;;;;;;19.60;7.20;;;;;;;14.17;55.43;101122.06;126447;1086;104200;-74
2023/09/29 05:07:43;;;;;;;23.20;7.53;;;;;;;14.24;55.37;101124.90;126455;1086;101852;-73
2023/09/29 05:10:13;;;;;;;23.97;7.57;;;;;;;14.28;55.55;101132.08;126629;1086;102162;-74
2023/09/29 05:12:43;;;;;;;22.37;7.80;;;;;;;14.33;55.64;101128.70;126381;1085;104155;-74
2023/09/29 05:15:12;;;;;;;24.63;7.60;;;;;;;14.38;55.76;101129.77;126257;1086;101952;-73
2023/09/29 05:17:41;;;;;;;25.73;7.93;;;;;;;14.46;55.37;101137.00;126359;1086;101813;-73
2023/09/29 05:20:12;;;;;;;22.53;8.20;;;;;;;14.48;55.89;101132.69;126150;1086;104213;-76
2023/09/29 05:22:41;;;;;;;30.30;8.47;;;;;;;14.52;56.15;101137.19;126283;1086;104220;-75
2023/09/29 05:25:13;;;;;;;24.73;8.17;;;;;;;14.54;56.65;101144.31;126420;1086;101914;-76
2023/09/29 05:27:44;;;;;;;29.07;8.50;;;;;;;14.59;55.96;101148.84;126328;1086;101900;-74
2023/09/29 05:30:13;;;;;;;25.10;8.97;;;;;;;14.59;56.84;101139.17;126310;1086;101934;-74
2023/09/29 05:32:42;;;;;;;23.13;8.90;;;;;;;14.60;56.02;101146.28;126273;1086;104297;-73
2023/09/29 05:35:12;;;;;;;29.27;8.47;;;;;;;14.64;56.06;101147.27;126264;1086;104265;-75
2023/09/29 05:37:41;;;;;;;31.87;8.93;;;;;;;14.70;56.46;101150.08;126281;1086;101974;-76
2023/09/29 05:40:12;;;;;;;21.30;8.17;;;;;;;14.77;56.85;101137.94;126319;1085;104156;-77
2023/09/29 05:42:43;;;;;;;21.97;8.63;;;;;;;14.88;56.19;101140.05;126378;1086;104176;-75
2023/09/29 05:45:13;;;;;;;27.70;9.27;;;;;;;15.00;56.85;101141.23;126250;1086;104248;-75
2023/09/29 05:47:41;;;;;;;22.47;7.70;;;;;;;15.12;55.94;101140.69;127478;1085;104261;-74
2023/09/29 05:50:11;;;;;;;25.67;8.20;;;;;;;15.22;56.02;101137.42;126278;1086;104177;-74
2023/09/29 05:52:39;;;;;;;20.37;8.00;;;;;;;15.32;56.56;101134.19;126340;1086;104181;-77
2023/09/29 05:55:11;;;;;;;22.17;8.37;;;;;;;15.42;56.32;101132.67;126331;1086;103508;-74
2023/09/29 05:57:40;;;;;;;21.23;8.20;;;;;;;15.52;55.85;101134.70;127270;1086;104369;-75
2023/09/29 06:00:13;;;;;;;24.13;9.53;;;;;;;15.63;55.39;101134.98;126244;1086;104024;-73
2023/09/29 06:02:42;;;;;;;22.57;7.73;;;;;;;15.73;56.15;101129.04;127427;1085;102117;-73
2023/09/29 06:05:12;;;;;;;23.37;8.37;;;;;;;15.85;56.00;101135.52;126637;1086;104705;-75
2023/09/29 06:07:43;;;;;;;23.07;8.00;;;;;;;15.92;55.92;101127.77;126391;1086;104171;-75
2023/09/29 06:10:27;;;;;;;25.47;8.50;;;;;;;16.04;54.94;101126.28;126508;1086;101981;-76
2023/09/29 06:12:59;;;;;;;22.20;9.07;;;;;;;16.15;55.17;101130.06;126347;1086;102636;-74
2023/09/29 06:15:33;;;;;;;27.90;8.00;;;;;;;16.25;55.06;101132.08;126476;1086;104200;-75
2023/09/29 06:18:02;;;;;;;27.37;8.10;;;;;;;16.39;54.88;101129.70;126432;1086;104178;-75
2023/09/29 06:20:33;;;;;;;25.47;8.50;;;;;;;16.51;54.71;101135.27;126664;1086;104178;-73
2023/09/29 06:23:05;;;;;;;20.90;8.40;;;;;;;16.62;54.33;101135.50;126568;1086;104226;-74
2023/09/29 06:25:34;;;;;;;19.73;7.73;;;;;;;16.74;54.68;101142.83;128260;1085;101817;-74
2023/09/29 06:28:03;;;;;;;25.57;8.27;;;;;;;16.87;54.17;101138.69;127128;1086;101760;-73
2023/09/29 06:30:36;;;;;;;25.57;8.63;;;;;;;17.00;54.60;101139.82;126213;1086;104248;-74
2023/09/29 06:36:06;;;;;;;29.47;8.77;;;;;;;17.29;54.03;101131.54;127535;1086;104268;-72
2023/09/29 06:38:38;;;;;;;21.57;7.80;;;;;;;17.42;53.90;101133.53;126319;1086;102872;-74
2023/09/29 06:41:09;;;;;;;27.87;8.33;;;;;;;17.56;53.78;101141.73;127451;1085;104210;-76
2023/09/29 06:43:45;;;;;;;22.83;8.17;;;;;;;17.73;53.38;101136.70;127707;1086;101743;-73
2023/09/29 06:46:15;;;;;;;20.67;7.77;;;;;;;17.88;53.45;101136.99;126464;1086;101844;-75
2023/09/29 06:48:48;;;;;;;28.70;9.20;;;;;;;18.05;52.90;101144.34;126473;1085;104152;-76
2023/09/29 06:51:24;;;;;;;21.80;8.33;;;;;;;18.20;52.73;101136.61;127758;1086;104159;-77
2023/09/29 06:53:53;;;;;;;22.87;8.53;;;;;;;18.38;52.20;101140.39;127182;1086;104015;-77
2023/09/29 06:56:30;;;;;;;20.00;8.47;;;;;;;18.57;51.98;101137.09;128021;1085;101770;-76
2023/09/29 06:59:00;;;;;;;20.00;8.07;;;;;;;18.76;52.42;101135.58;128195;1086;101735;-75
2023/09/29 07:01:32;;;;;;;21.20;8.70;;;;;;;18.93;51.95;101140.22;127754;1086;101857;-76
2023/09/29 07:04:01;;;;;;;22.33;8.07;;;;;;;19.12;52.47;101128.92;126885;1085;101975;-76
2023/09/29 07:06:30;;;;;;;23.70;8.57;;;;;;;19.34;51.16;101131.80;126320;1086;104283;-76
2023/09/29 07:09:00;;;;;;;24.03;8.23;;;;;;;19.53;50.93;101123.09;126496;1086;104252;-76
2023/09/29 07:11:35;;;;;;;26.30;8.70;;;;;;;19.71;51.31;101129.45;126620;1086;102067;-79
2023/09/29 07:14:04;;;;;;;24.27;9.13;;;;;;;19.89;51.25;101126.08;127580;1085;104162;-80
2023/09/29 07:16:41;;;;;;;23.50;8.73;;;;;;;20.08;51.13;101129.76;127808;1085;104040;-77
2023/09/29 07:19:13;;;;;;;21.47;8.00;;;;;;;20.27;51.10;101126.34;129052;1085;101608;-80
2023/09/29 07:21:43;;;;;;;22.17;8.30;;;;;;;20.42;50.73;101127.30;126694;1086;101896;-76
2023/09/29 07:24:12;;;;;;;30.80;9.23;;;;;;;20.57;50.57;101126.45;126990;1086;104582;-77
2023/09/29 07:26:42;;;;;;;23.27;8.57;;;;;;;20.74;49.56;101124.81;126846;1086;104242;-79
2023/09/29 07:29:14;;;;;;;31.17;9.40;;;;;;;20.89;49.90;101120.41;126624;1086;101973;-78
2023/09/29 07:31:54;;;;;;;26.90;8.40;;;;;;;21.05;48.77;101122.25;127569;1085;101958;-78
2023/09/29 07:34:27;;;;;;;27.83;9.37;;;;;;;21.23;48.42;101121.37;127095;1086;102295;-79
2023/09/29 07:36:59;;;;;;;21.40;8.13;;;;;;;21.39;48.64;101124.94;126826;1086;104171;-80
2023/09/29 07:40:07;;;;;;;31.13;9.67;;;;;;;21.56;48.68;101122.32;126627;1086;102347;-78
2023/09/29 07:46:04;;;;;;;21.93;8.80;;;;;;;21.81;47.83;101127.66;126722;1086;104264;-80
2023/09/29 07:48:37;;;;;;;19.67;8.10;;;;;;;21.92;47.57;101133.00;126800;1086;101959;-78
2023/09/29 07:55:10;;;;;;;19.97;7.70;;;;;;;22.15;45.97;101131.17;126660;1086;102320;-78
2023/09/29 07:57:48;;;;;;;17.80;7.57;;;;;;;22.17;46.24;101121.36;126705;1086;101974;-77
2023/09/29 08:00:20;;;;;;;18.00;7.87;;;;;;;22.26;45.50;101126.69;126326;1086;104190;-76
2023/09/29 08:02:49;;;;;;;25.87;7.30;;;;;;;22.39;46.29;101124.92;126521;1086;101888;-76
2023/09/29 08:05:19;;;;;;;17.57;7.03;;;;;;;22.51;45.22;101125.77;126409;1086;105495;-75
2023/09/29 08:07:51;;;;;;;19.97;7.27;;;;;;;22.59;45.48;101129.30;126391;1085;104251;-76
2023/09/29 08:10:24;;;;;;;17.40;6.70;;;;;;;22.72;44.16;101120.33;126616;1086;101922;-76
2023/09/29 08:12:55;;;;;;;19.03;7.07;;;;;;;22.84;43.70;101124.71;126374;1084;104191;-77
2023/09/29 08:15:33;;;;;;;19.73;6.90;;;;;;;23.01;43.80;101115.72;126299;1086;101920;-79
2023/09/29 08:18:05;;;;;;;16.83;6.40;;;;;;;23.09;43.10;101097.85;126343;1086;102050;-76
2023/09/29 08:20:35;;;;;;;15.30;6.90;;;;;;;23.29;42.53;101109.30;126273;1086;104247;-76
2023/09/29 08:23:07;;;;;;;13.60;6.70;;;;;;;23.42;42.80;101101.17;126239;1086;102066;-76
2023/09/29 08:25:45;;;;;;;;;;;;;;;;;;;;;
2023/09/29 08:28:38;;;;;;;14.00;6.27;;;;;;;23.79;41.09;101096.38;126968;1086;102238;-78
2023/09/29 08:31:20;;;;;;;23.57;6.67;;;;;;;23.96;41.47;101098.94;127667;1085;101826;-76
2023/09/29 08:33:53;;;;;;;18.07;6.80;;;;;;;24.08;40.88;101094.37;126316;1086;104299;-76
2023/09/29 08:36:28;;;;;;;16.03;6.23;;;;;;;24.18;41.39;101099.62;126251;1085;104178;-79
2023/09/29 08:38:57;;;;;;;17.10;6.50;;;;;;;24.32;39.80;101096.75;126159;1087;103290;-77
2023/09/29 08:41:35;;;;;;;16.03;6.27;;;;;;;24.46;40.04;101098.39;126338;1086;102373;-77
2023/09/29 08:44:08;;;;;;;12.37;6.07;;;;;;;24.57;40.36;101100.08;126246;1086;102113;-74
2023/09/29 08:46:41;;;;;;;15.40;6.27;;;;;;;24.65;39.60;101107.13;126327;1086;104271;-76
2023/09/29 08:49:11;;;;;;;19.07;5.90;;;;;;;24.58;39.88;101099.15;126459;1086;101832;-75
2023/09/29 08:51:46;;;;;;;14.40;5.90;;;;;;;24.62;39.04;101105.39;126650;1086;104070;-75
2023/09/29 08:54:20;;;;;;;16.07;6.63;;;;;;;24.68;38.56;101097.26;126229;1086;102210;-73
2023/09/29 08:56:51;;;;;;;13.17;5.77;;;;;;;24.78;38.51;101092.64;125951;1086;101936;-79
2023/09/29 08:59:22;;;;;;;16.70;5.30;;;;;;;24.90;38.53;101088.88;126240;1086;104226;-74
2023/09/29 09:01:55;;;;;;;14.07;5.73;;;;;;;25.03;38.07;101095.86;126201;1086;104427;-73
2023/09/29 09:04:24;;;;;;;11.30;5.23;;;;;;;25.10;37.33;101089.50;126286;1086;101814;-73
2023/09/29 09:06:53;;;;;;;15.93;5.43;;;;;;;25.17;36.56;101094.78;126430;1085;102016;-76
2023/09/29 09:09:35;;;;;;;18.63;6.03;;;;;;;25.28;37.16;101088.34;126407;1086;104152;-77
2023/09/29 09:12:08;;;;;;;10.43;5.63;;;;;;;25.36;37.50;101087.34;126306;1086;104222;-73
2023/09/29 09:14:45;;;;;;;11.50;5.60;;;;;;;25.44;36.98;101075.54;126218;1086;104420;-72
2023/09/29 09:17:17;;;;;;;11.33;5.33;;;;;;;25.58;36.60;101085.17;126281;1086;104159;-74
2023/09/29 09:19:51;;;;;;;12.97;5.50;;;;;;;25.66;36.32;101083.23;126236;1086;104181;-73
2023/09/29 09:22:38;;;;;;;13.03;5.23;;;;;;;25.76;35.61;101076.80;127459;1086;103610;-74
2023/09/29 09:25:08;;;;;;;12.75;5.15;;;;;;;25.84;35.88;101084.72;126230;1086;101833;-74
2023/09/29 09:27:39;;;;;;;15.13;5.30;;;;;;;25.92;35.04;101082.77;126798;1086;104159;-74
2023/09/29 09:30:21;;;;;;;12.23;5.47;;;;;;;26.02;34.95;101064.68;126280;1086;104196;-74
2023/09/29 09:32:51;;;;;;;14.00;5.43;;;;;;;26.18;35.03;101065.28;126232;1085;104191;-74
2023/09/29 09:35:38;;;;;;;12.73;5.55;;;;;;;26.33;35.00;101074.83;126186;1086;104324;-74
2023/09/29 09:38:38;;;;;;;10.43;6.00;;;;;;;26.44;34.95;101075.48;126132;1086;111950;-74
2023/09/29 09:41:09;;;;;;;11.37;5.20;;;;;;;26.48;33.92;101066.44;127020;1086;104138;-73
2023/09/29 09:51:56;;;;;;;11.70;4.40;;;;;;;26.57;32.76;101057.29;126037;1089;104219;-78
2023/09/29 09:54:51;;;;;;;7.93;4.47;;;;;;;26.66;32.72;101049.05;126074;1090;104162;-77
2023/09/29 09:57:37;;;;;;;13.23;5.00;;;;;;;26.71;32.16;101057.89;126065;1089;102105;-78
2023/09/29 10:00:30;;;;;;;11.27;4.30;;;;;;;26.78;31.56;101055.06;126967;1089;104179;-76
2023/09/29 10:03:11;;;;;;;10.60;4.33;;;;;;;26.78;30.66;101055.94;126260;1086;104194;-77
2023/09/29 10:05:51;;;;;;;10.43;4.20;;;;;;;26.86;30.73;101059.33;126443;1086;104152;-79
2023/09/29 10:08:29;;;;;;;12.80;4.03;;;;;;;26.77;27.94;101059.58;126429;1086;102073;-80
2023/09/29 10:11:14;;;;;;;11.73;4.50;;;;;;;26.94;30.28;101052.89;127147;1086;104213;-80
2023/09/29 10:13:50;;;;;;;8.23;4.30;;;;;;;26.99;30.74;101041.10;128353;1085;101772;-78
2023/09/29 10:16:24;;;;;;;8.77;4.20;;;;;;;27.11;30.13;101044.41;126488;1086;104200;-76
2023/09/29 10:19:00;;;;;;;13.00;4.20;;;;;;;27.21;29.96;101035.20;126285;1086;104168;-76
2023/09/29 10:21:43;;;;;;;6.67;4.00;;;;;;;27.25;29.18;101037.78;126300;1086;102082;-78
2023/09/29 10:24:13;;;;;;;;;;;;;;;27.22;29.30;101036.94;126767;1086;104021;-76
2023/09/29 10:26:51;;;;;;;14.87;4.53;;;;;;;27.26;28.64;101033.27;127726;1085;102105;-75
2023/09/29 10:29:26;;;;;;;8.67;4.10;;;;;;;27.29;28.24;101030.48;126339;1086;104235;-75
2023/09/29 10:32:05;;;;;;;7.37;4.40;;;;;;;27.33;28.77;101023.23;126304;1085;104174;-75
2023/09/29 10:34:41;;;;;;;7.03;3.90;;;;;;;27.31;28.03;101033.14;127211;1086;104210;-77
2023/09/29 10:37:14;;;;;;;8.43;4.17;;;;;;;27.35;27.96;101024.11;126216;1086;101928;-76
2023/09/29 10:39:46;;;;;;;9.80;4.17;;;;;;;27.32;28.40;101021.48;126310;1086;104082;-77
2023/09/29 10:42:15;;;;;;;12.23;4.10;;;;;;;27.36;28.06;101023.16;127997;1085;104222;-77
2023/09/29 10:44:52;;;;;;;7.03;4.03;;;;;;;27.41;27.66;101015.83;127703;1085;102007;-77
2023/09/29 10:47:42;;;;;;;9.17;3.93;;;;;;;27.39;27.11;101013.17;126306;1086;103562;-77
2023/09/29 10:50:18;;;;;;;11.12;4.03;;;;;;;27.51;26.96;101016.50;126292;1086;107203;-78
2023/09/29 10:52:47;;;;;;;7.90;3.83;;;;;;;27.53;27.39;101010.12;127245;1087;101887;-79
2023/09/29 10:55:26;;;;;;;11.67;4.03;;;;;;;27.59;27.65;101009.08;126444;1086;101968;-78
2023/09/29 10:58:03;;;;;;;10.53;3.90;;;;;;;27.62;26.78;101003.61;127727;1085;104166;-76
2023/09/29 11:00:41;;;;;;;5.90;3.70;;;;;;;27.65;26.86;101018.83;126549;1086;117868;-76
2023/09/29 11:03:16;;;;;;;8.93;4.07;;;;;;;27.61;27.45;101002.73;127702;1085;101979;-77
2023/09/29 11:06:18;;;;;;;9.10;3.87;;;;;;;27.61;26.85;100994.65;127720;1085;104220;-79
2023/09/29 11:09:42;;;;;;;8.83;3.90;;;;;;;27.63;26.82;101002.69;126647;1086;101896;-75
2023/09/29 11:12:26;;;;;;;13.23;4.30;;;;;;;27.53;26.77;100984.98;127492;1086;104165;-77
2023/09/29 11:15:37;;;;;;;11.57;4.13;;;;;;;27.55;26.13;100993.91;127574;1086;102054;-76
2023/09/29 11:21:40;;;;;;;8.43;4.30;;;;;;;27.54;26.87;101002.94;127922;1085;102038;-77
2023/09/29 11:24:18;;;;;;;8.83;4.20;;;;;;;27.57;26.50;100995.64;126836;1085;104322;-79
2023/09/29 11:27:28;;;;;;;;;;;;;;;;;;;;;
2023/09/29 11:30:42;;;;;;;8.00;3.97;;;;;;;27.72;27.12;100980.88;127172;1086;102234;-76
2023/09/29 11:33:46;;;;;;;15.80;4.30;;;;;;;27.76;26.82;100976.27;126400;1086;107142;-75
2023/09/29 11:36:27;;;;;;;9.40;4.00;;;;;;;27.79;26.88;100974.36;127579;1085;104264;-75
2023/09/29 11:39:10;;;;;;;7.67;4.23;;;;;;;27.86;26.53;100982.27;126341;1086;104248;-77
2023/09/29 11:41:55;;;;;;;10.53;4.03;;;;;;;27.92;26.87;100974.88;126388;1086;104162;-77
2023/09/29 11:44:51;;;;;;;8.00;4.20;;;;;;;27.93;26.51;100976.66;127661;1085;103030;-76
2023/09/29 11:48:15;;;;;;;;;;;;;;;;;;;;;
2023/09/29 11:50:57;;;;;;;10.60;4.00;;;;;;;27.85;25.81;100970.62;126296;1086;104229;-76
2023/09/29 11:53:32;;;;;;;6.73;3.90;;;;;;;27.83;25.08;100979.67;126479;1086;101890;-79
2023/09/29 11:59:59;;;;;;;7.63;3.73;;;;;;;27.77;25.70;100968.14;127871;1085;103162;-80